Time;durP1;ratioP1;P1;durP2;ratioP2;P2;SDS_P1;SDS_P2;PMS_P1;PMS_P2;Temp;Humidity;BMP_temperature;BMP_pressure;BME280_temperature;BME280_humidity;BME280_pressure;Samples;Min_cycle;Max_cycle;Signal;HPM_P1;HPM_P2
2021/10/03 10:08:38;;;;;;;3.75;3.20;;;;;;;15.99;40.17;102202.45;1793518;77;23985;-88
2021/10/03 10:11:29;;;;;;;6.53;3.50;;;;;;;15.98;41.10;102199.45;1702339;82;21562;-87
2021/10/03 10:14:02;;;;;;;4.28;3.62;;;;;;;16.02;41.05;102196.49;1760487;80;21090;-85
2021/10/03 10:16:44;;;;;;;4.53;3.55;;;;;;;16.06;40.51;102195.79;1760863;80;21012;-86
2021/10/03 10:19:35;;;;;;;4.12;3.42;;;;;;;16.07;40.53;102201.41;1757612;80;21099;-90
2021/10/03 10:22:22;;;;;;;4.85;3.50;;;;;;;16.14;41.82;102202.64;1748388;80;21138;-85
2021/10/03 10:25:16;;;;;;;4.28;3.75;;;;;;;16.19;39.37;102201.80;1692172;82;21207;-89
2021/10/03 10:27:48;;;;;;;6.85;4.00;;;;;;;16.24;39.82;102181.76;1702217;81;20998;-86
2021/10/03 10:30:16;;;;;;;5.55;4.05;;;;;;;16.33;39.66;102190.27;1741425;81;21038;-91
2021/10/03 10:33:07;;;;;;;4.83;4.20;;;;;;;16.43;39.74;102193.04;1749974;81;21013;-87
2021/10/03 10:35:35;;;;;;;7.83;4.37;;;;;;;16.49;39.53;102177.29;1703675;81;21191;-88
2021/10/03 10:38:07;;;;;;;4.87;3.35;;;;;;;16.58;40.17;102187.60;1761789;80;21030;-85
2021/10/03 10:40:35;;;;;;;4.42;3.83;;;;;;;16.66;40.15;102183.91;1750582;80;21065;-87
2021/10/03 10:43:10;;;;;;;7.17;4.45;;;;;;;16.76;39.26;102166.94;1724144;82;21068;-89
2021/10/03 10:45:44;;;;;;;5.58;4.45;;;;;;;16.78;39.21;102177.70;1739293;80;21090;-88
2021/10/03 10:48:13;;;;;;;7.37;4.10;;;;;;;16.85;39.22;102167.55;1706675;81;21567;-90
2021/10/03 10:50:53;;;;;;;8.88;4.35;;;;;;;16.93;38.85;102176.18;1730885;80;21013;-89
2021/10/03 10:53:30;;;;;;;6.57;4.03;;;;;;;17.03;38.22;102174.02;1718470;81;21167;-87
2021/10/03 10:56:17;;;;;;;7.72;4.00;;;;;;;17.02;39.21;102176.29;1712147;82;21140;-87
2021/10/03 10:58:58;;;;;;;6.53;3.65;;;;;;;17.02;39.64;102178.92;1783793;78;21512;-88
2021/10/03 11:01:36;;;;;;;7.15;4.00;;;;;;;17.03;39.21;102176.66;1787099;78;21150;-86
2021/10/03 11:04:23;;;;;;;6.95;5.10;;;;;;;17.01;39.11;102177.28;1756943;80;21044;-84
2021/10/03 11:06:53;;;;;;;9.78;6.50;;;;;;;16.94;39.56;102176.08;1758021;80;22409;-86
2021/10/03 11:09:20;;;;;;;8.97;6.67;;;;;;;16.84;38.89;102175.08;1732892;81;21659;-87
2021/10/03 11:11:58;;;;;;;7.25;6.17;;;;;;;16.77;38.36;102179.14;1740925;80;21054;-88
2021/10/03 11:14:28;;;;;;;6.87;4.65;;;;;;;16.75;38.24;102171.84;1745027;80;21093;-89
2021/10/03 11:17:05;;;;;;;9.10;4.83;;;;;;;16.77;39.35;102161.55;1762535;80;21769;-89
2021/10/03 11:19:43;;;;;;;9.30;6.55;;;;;;;16.82;39.22;102164.69;1725948;80;21059;-88
2021/10/03 11:22:15;;;;;;;10.68;7.28;;;;;;;16.88;39.14;102173.88;1691178;81;21014;-87
2021/10/03 11:24:47;;;;;;;10.82;6.37;;;;;;;16.91;38.00;102165.75;1704338;80;21031;-88
2021/10/03 11:27:27;;;;;;;8.48;5.50;;;;;;;16.92;39.16;102161.31;1752877;78;21029;-89
2021/10/03 11:29:58;;;;;;;18.30;13.30;;;;;;;16.92;37.82;102162.17;1732592;80;21009;-87
2021/10/03 11:32:32;;;;;;;19.70;17.02;;;;;;;16.89;36.94;102170.28;1733893;79;21116;-87
2021/10/03 11:35:13;;;;;;;31.05;11.68;;;;;;;16.81;37.38;102157.75;1758331;79;21734;-87
2021/10/03 11:37:49;;;;;;;17.90;7.57;;;;;;;16.77;37.72;102157.61;1778094;78;21091;-87
2021/10/03 11:40:23;;;;;;;8.53;5.15;;;;;;;16.77;38.64;102148.89;1761174;79;21115;-89
2021/10/03 11:42:57;;;;;;;9.05;5.72;;;;;;;16.77;37.75;102159.41;1733708;79;20996;-87
2021/10/03 11:45:33;;;;;;;9.05;5.90;;;;;;;16.74;37.80;102167.07;1733628;81;21531;-85
2021/10/03 11:48:07;;;;;;;6.72;4.90;;;;;;;16.70;38.06;102158.55;1750746;81;21068;-89
2021/10/03 11:50:45;;;;;;;5.12;3.50;;;;;;;16.67;37.73;102164.06;1739856;81;21041;-91
2021/10/03 11:53:25;;;;;;;4.30;3.90;;;;;;;16.62;37.74;102149.59;1740013;79;20977;-89
2021/10/03 11:56:09;;;;;;;5.65;4.00;;;;;;;16.59;38.09;102148.49;1753843;80;21067;-86
2021/10/03 11:58:40;;;;;;;7.22;3.37;;;;;;;16.59;38.48;102149.80;1761894;80;21703;-87
2021/10/03 12:01:08;;;;;;;6.20;4.00;;;;;;;16.60;38.21;102156.75;1760843;80;21385;-88
2021/10/03 12:03:49;;;;;;;7.92;3.77;;;;;;;16.60;38.23;102156.75;1731362;81;21136;-88
2021/10/03 12:06:22;;;;;;;5.87;3.90;;;;;;;16.58;38.28;102152.92;1755480;79;21108;-87
2021/10/03 12:08:51;;;;;;;8.98;3.83;;;;;;;16.56;38.52;102152.20;1723141;81;21109;-87
2021/10/03 12:11:19;;;;;;;6.55;4.28;;;;;;;16.54;38.59;102163.34;1788041;79;21157;-89
2021/10/03 12:13:58;;;;;;;4.28;3.87;;;;;;;16.50;38.33;102160.56;1761317;79;21072;-88
2021/10/03 12:16:26;;;;;;;6.25;3.62;;;;;;;16.46;38.73;102157.82;1780863;78;21202;-89
2021/10/03 12:19:12;;;;;;;6.15;3.72;;;;;;;16.43;38.67;102156.73;1736905;80;21150;-90
2021/10/03 12:21:39;;;;;;;6.03;4.28;;;;;;;16.39;39.65;102158.27;1733637;79;21013;-88
2021/10/03 12:24:08;;;;;;;8.88;3.60;;;;;;;16.37;39.80;102156.25;1739652;80;21089;-87
2021/10/03 12:26:42;;;;;;;7.67;3.53;;;;;;;16.36;39.58;102159.83;1772882;78;21138;-85
2021/10/03 12:29:24;;;;;;;6.42;4.25;;;;;;;16.34;40.45;102160.91;1763737;80;22100;-90
2021/10/03 12:32:13;;;;;;;5.70;4.67;;;;;;;16.32;40.45;102163.62;1779138;78;21498;-89
2021/10/03 12:34:49;;;;;;;7.07;5.47;;;;;;;16.30;40.72;102155.04;1766609;79;21122;-87
2021/10/03 12:37:18;;;;;;;4.45;3.47;;;;;;;16.28;40.72;102158.25;1774118;79;21069;-89
2021/10/03 12:39:51;;;;;;;8.83;4.90;;;;;;;16.28;39.94;102156.94;1754382;78;21053;-88
2021/10/03 12:42:23;;;;;;;18.30;4.30;;;;;;;16.26;40.38;102156.20;1692038;81;21201;-88
2021/10/03 12:44:54;;;;;;;5.42;4.15;;;;;;;16.24;40.40;102152.84;1696720;82;21092;-89
2021/10/03 12:47:22;;;;;;;19.70;4.15;;;;;;;16.24;40.46;102151.08;1749389;79;21056;-88
2021/10/03 12:49:52;;;;;;;9.03;3.72;;;;;;;16.22;40.97;102150.34;1722001;79;21302;-85
2021/10/03 12:52:20;;;;;;;5.58;3.25;;;;;;;16.23;40.99;102153.80;1693395;79;21539;-85
2021/10/03 12:54:48;;;;;;;4.17;3.20;;;;;;;16.21;40.63;102159.67;1751533;79;21183;-88
2021/10/03 12:57:16;;;;;;;8.33;3.75;;;;;;;16.18;40.56;102155.48;1745603;80;21581;-86
2021/10/03 12:59:45;;;;;;;3.70;3.40;;;;;;;16.15;40.87;102146.96;1765331;80;20940;-85
2021/10/03 13:02:12;;;;;;;5.97;3.62;;;;;;;16.13;41.05;102146.27;1744219;80;21099;-84
2021/10/03 13:04:39;;;;;;;9.68;4.92;;;;;;;16.11;41.23;102146.84;1743471;80;21182;-87
2021/10/03 13:07:08;;;;;;;10.53;4.33;;;;;;;16.08;41.29;102136.91;1741759;80;20988;-91
2021/10/03 13:09:35;;;;;;;6.62;3.98;;;;;;;16.07;40.96;102141.80;1764159;79;21057;-83
2021/10/03 13:12:03;;;;;;;5.67;3.85;;;;;;;16.05;41.26;102137.63;1776921;78;21401;-88
2021/10/03 13:14:30;;;;;;;7.90;4.25;;;;;;;16.02;41.24;102133.44;1740750;80;21800;-86
2021/10/03 13:16:59;;;;;;;6.15;4.30;;;;;;;16.00;41.18;102134.02;1730875;81;21215;-87
2021/10/03 13:19:26;;;;;;;6.97;5.00;;;;;;;15.97;41.29;102130.78;1711580;81;21615;-86
2021/10/03 13:21:55;;;;;;;8.98;4.37;;;;;;;15.96;41.57;102136.98;1716676;81;21020;-85
2021/10/03 13:24:22;;;;;;;5.83;4.37;;;;;;;15.93;41.28;102134.12;1761228;79;21538;-90
2021/10/03 13:26:49;;;;;;;5.58;3.70;;;;;;;15.89;41.57;102128.74;1749126;78;21017;-87
2021/10/03 13:29:18;;;;;;;7.58;3.90;;;;;;;15.84;41.78;102119.03;1722043;79;21080;-87
2021/10/03 13:31:45;;;;;;;5.45;4.58;;;;;;;15.82;41.84;102130.12;1761106;79;21056;-87
2021/10/03 13:34:12;;;;;;;5.53;3.95;;;;;;;15.78;42.08;102132.13;1746671;79;21199;-87
2021/10/03 13:36:39;;;;;;;5.78;4.00;;;;;;;15.74;42.08;102127.55;1783473;79;21095;-88
2021/10/03 13:39:06;;;;;;;9.13;5.80;;;;;;;15.70;42.08;102124.80;1707955;82;21259;-85
2021/10/03 13:41:33;;;;;;;12.80;7.72;;;;;;;15.67;42.58;102128.95;1729012;80;21148;-87
2021/10/03 13:44:01;;;;;;;7.78;4.90;;;;;;;15.64;42.69;102127.02;1700134;81;21037;-88
2021/10/03 13:46:30;;;;;;;7.30;4.67;;;;;;;15.60;43.05;102130.35;1725342;80;21128;-86
